Main page
METAR-TAF:

METAR-TAF

Airports :

Durham, England

Durham Tees Valley Airport

latitude: 54-31N, longitude: 001-25W, elevation: 37 m

Current weather observation

The report was made 52 minutes ago, at 09:50 UTC
Wind 4 kt from the South/Southeast
Temperature 0°C
Humidity 93%
Pressure 1028 hPa
Visibility 10 km or more
no clouds below 1500 m and no cumulonimbus

METAR: EGNV 180950Z 16004KT CAVOK M00/M01 Q1028

Time: 10:42 (10:42 UTC)

Forecast

The report was made 2 hours and 44 minutes ago, at 07:58 UTC
Forecast valid from 18 at 09 UTC to 18 at 18 UTC
Wind 5 kt from the South
Visibility 10 km or more
Scattered clouds at a height of 1500 ft
Temporary
from 18 at 09 UTC to 18 at 18 UTC
Visibility: 7000 m

TAF: EGNV 180758Z 1809/1818 19005KT 9999 SCT015 TEMPO 1809/1818 7000

Weather observations and forecasts of more than 4000 airports (METAR and TAF reports).

The available stations are represented by yellow and red dots on the map.

Hover mouse over dot to see the name of the station.

Then click to see weather observations and forecasts.

To change the map : click on the green buttons with a black cross to zoom in, on the green button with a dash to zoom out, or on the green arrows for adjacent maps.


METAR-TAF: